Time;durP1;ratioP1;P1;durP2;ratioP2;P2;SDS_P1;SDS_P2;PMS_P1;PMS_P2;Temp;Humidity;BMP_temperature;BMP_pressure;BME280_temperature;BME280_humidity;BME280_pressure;Samples;Min_cycle;Max_cycle;Signal;HPM_P1;HPM_P2
2023/05/15 00:00:09;;;;;;;19.00;13.38;;;16.70;99.90;;;;;;5092771;28;20062;-77
2023/05/15 00:03:23;;;;;;;18.50;13.05;;;16.70;99.90;;;;;;5092377;28;20407;-77
2023/05/15 00:06:27;;;;;;;21.77;13.43;;;16.60;99.90;;;;;;5092808;28;20051;-77
2023/05/15 00:09:31;;;;;;;21.52;13.70;;;16.60;99.90;;;;;;5091748;28;20074;-77
2023/05/15 00:12:35;;;;;;;23.27;13.50;;;16.60;99.90;;;;;;5092423;28;20039;-77
2023/05/15 00:15:39;;;;;;;23.95;14.63;;;16.60;99.90;;;;;;5092239;28;20039;-77
2023/05/15 00:18:43;;;;;;;30.38;17.17;;;16.70;99.90;;;;;;5091703;28;20043;-77
2023/05/15 00:21:47;;;;;;;23.90;16.60;;;16.60;99.90;;;;;;5092303;28;20039;-77
2023/05/15 00:24:52;;;;;;;27.90;17.65;;;16.50;99.90;;;;;;5092127;28;20047;-77
2023/05/15 00:27:56;;;;;;;28.38;18.90;;;16.50;99.90;;;;;;5091870;28;20055;-77
2023/05/15 00:31:00;;;;;;;32.42;20.02;;;16.50;99.90;;;;;;5091889;28;20047;-77
2023/05/15 00:34:04;;;;;;;32.63;21.67;;;16.40;99.90;;;;;;5092206;28;20123;-77
2023/05/15 00:37:08;;;;;;;31.80;21.33;;;17.80;99.90;;;;;;5091114;28;20399;-77
2023/05/15 00:40:19;;;;;;;37.25;22.17;;;16.30;99.90;;;;;;5090931;28;20039;-77
2023/05/15 00:43:25;;;;;;;35.63;23.33;;;16.40;99.90;;;;;;5091697;28;20051;-77
2023/05/15 00:46:31;;;;;;;33.95;22.83;;;16.30;99.90;;;;;;5092011;28;20047;-77
2023/05/15 00:49:36;;;;;;;32.58;22.48;;;16.30;99.90;;;;;;5091849;28;20054;-77
2023/05/15 00:52:41;;;;;;;36.45;24.45;;;16.30;99.90;;;;;;5091620;28;20039;-77
2023/05/15 00:55:46;;;;;;;39.03;24.10;;;15.20;99.90;;;;;;5090592;28;20043;-77
2023/05/15 00:58:51;;;;;;;32.80;23.58;;;16.30;99.90;;;;;;5091597;28;20047;-77
2023/05/15 01:01:55;;;;;;;33.15;23.55;;;16.30;99.90;;;;;;5091656;28;20491;-77
2023/05/15 01:04:59;;;;;;;35.42;23.83;;;16.30;99.90;;;;;;5090977;28;20043;-77
2023/05/15 01:08:20;;;;;;;34.63;23.50;;;16.30;99.90;;;;;;5091408;28;20043;-77
2023/05/15 01:11:27;;;;;;;30.85;22.17;;;16.20;99.90;;;;;;5091705;28;20043;-78
2023/05/15 01:14:30;;;;;;;31.83;22.60;;;16.20;99.90;;;;;;5091549;28;20051;-77
2023/05/15 01:17:34;;;;;;;31.20;21.55;;;15.80;99.90;;;;;;5091061;28;20043;-77
2023/05/15 01:21:08;;;;;;;34.42;21.65;;;16.30;99.90;;;;;;5091600;28;20043;-77
2023/05/15 01:24:39;;;;;;;33.05;23.05;;;16.30;99.90;;;;;;5090271;28;20047;-77
2023/05/15 01:27:53;;;;;;;31.30;23.27;;;16.30;99.90;;;;;;5090169;28;20067;-77
2023/05/15 01:31:09;;;;;;;34.05;23.52;;;16.30;99.90;;;;;;5090999;28;20395;-77
2023/05/15 01:34:17;;;;;;;32.42;23.67;;;16.30;99.90;;;;;;5090166;28;20043;-77
2023/05/15 01:37:25;;;;;;;33.88;23.92;;;14.60;99.90;;;;;;5090125;28;20055;-78
2023/05/15 01:40:29;;;;;;;34.53;22.42;;;17.30;99.90;;;;;;5078645;28;20059;-76
2023/05/15 01:43:35;;;;;;;34.03;22.55;;;16.30;99.90;;;;;;5090829;28;20050;-77
2023/05/15 01:46:48;;;;;;;33.90;23.23;;;16.40;99.90;;;;;;5090235;28;20411;-77
2023/05/15 01:49:54;;;;;;;36.30;24.15;;;16.30;99.90;;;;;;5089967;28;20067;-78
2023/05/15 01:53:01;;;;;;;35.40;23.67;;;16.40;99.90;;;;;;5089995;28;20039;-77
2023/05/15 01:56:08;;;;;;;32.50;23.92;;;16.40;99.90;;;;;;5090827;28;20043;-77
2023/05/15 01:59:15;;;;;;;33.55;23.63;;;16.40;99.90;;;;;;5090201;28;20495;-77
2023/05/15 02:02:20;;;;;;;32.58;23.25;;;16.40;99.90;;;;;;5094059;28;20384;-77
2023/05/15 02:05:26;;;;;;;29.30;22.25;;;16.30;99.90;;;;;;5094993;28;20575;-78
2023/05/15 02:08:31;;;;;;;36.55;23.02;;;16.30;99.90;;;;;;5094805;28;20055;-77
2023/05/15 02:11:36;;;;;;;37.63;23.13;;;16.20;99.90;;;;;;5094995;28;20054;-77
2023/05/15 02:14:41;;;;;;;30.80;22.40;;;16.10;99.90;;;;;;5094768;28;20055;-77
2023/05/15 02:17:45;;;;;;;31.45;22.00;;;16.10;99.90;;;;;;5094817;28;20047;-77
2023/05/15 02:20:50;;;;;;;30.33;20.50;;;16.20;99.90;;;;;;5093662;28;20047;-77
2023/05/15 02:23:54;;;;;;;27.50;21.45;;;16.00;99.90;;;;;;5094336;28;20514;-78
2023/05/15 02:27:16;;;;;;;40.53;23.38;;;16.10;99.90;;;;;;5094252;28;20039;-78
2023/05/15 02:30:58;;;;;;;29.50;22.70;;;15.90;99.90;;;;;;5093304;28;20051;-78
2023/05/15 02:34:21;;;;;;;32.13;23.05;;;15.90;99.90;;;;;;5093575;28;20377;-77
2023/05/15 02:37:30;;;;;;;29.60;23.30;;;16.00;99.90;;;;;;5093640;28;20047;-77
2023/05/15 02:40:36;;;;;;;30.88;22.10;;;15.90;99.90;;;;;;5093478;28;20047;-78
2023/05/15 02:43:44;;;;;;;37.30;23.33;;;15.90;99.90;;;;;;5093908;28;20138;-77
2023/05/15 02:46:49;;;;;;;35.92;23.10;;;16.20;99.90;;;;;;5094349;28;20043;-77
2023/05/15 02:49:56;;;;;;;27.00;20.92;;;15.90;99.90;;;;;;5093363;28;20051;-77
2023/05/15 02:53:08;;;;;;;32.92;21.70;;;16.10;99.90;;;;;;5094057;28;20518;-77
2023/05/15 02:56:12;;;;;;;32.15;22.58;;;15.90;99.90;;;;;;5094042;28;20498;-77
2023/05/15 02:59:18;;;;;;;38.95;23.48;;;16.00;99.90;;;;;;5092848;28;20043;-76
2023/05/15 03:02:22;;;;;;;31.95;22.52;;;16.50;99.90;;;;;;5093707;28;20043;-76
2023/05/15 03:05:26;;;;;;;30.25;21.80;;;15.90;99.90;;;;;;5092835;28;20471;-76
2023/05/15 03:08:31;;;;;;;33.83;22.65;;;16.00;99.90;;;;;;5094013;28;20043;-76
2023/05/15 03:11:35;;;;;;;33.60;21.92;;;15.80;99.90;;;;;;5092324;28;20545;-77
2023/05/15 03:14:38;;;;;;;31.83;21.83;;;15.90;99.90;;;;;;5093004;28;20495;-77
2023/05/15 03:17:42;;;;;;;33.47;23.08;;;15.90;99.90;;;;;;5092620;28;20035;-77
2023/05/15 03:20:47;;;;;;;32.65;22.42;;;15.90;99.90;;;;;;5093549;28;20058;-77
2023/05/15 03:23:52;;;;;;;32.05;22.27;;;16.00;99.90;;;;;;5093285;28;20063;-78
2023/05/15 03:26:55;;;;;;;30.48;21.42;;;15.90;99.90;;;;;;5092533;28;20039;-77
2023/05/15 03:29:59;;;;;;;38.97;22.85;;;16.40;99.90;;;;;;5093265;28;20067;-77
2023/05/15 03:33:03;;;;;;;33.28;20.92;;;16.00;99.90;;;;;;5092166;28;20039;-77
2023/05/15 03:36:07;;;;;;;33.30;21.95;;;15.90;99.90;;;;;;5080501;28;20043;-78
2023/05/15 03:39:11;;;;;;;26.45;19.20;;;15.90;99.90;;;;;;5092222;28;20039;-77
2023/05/15 03:42:21;;;;;;;25.05;18.27;;;18.20;99.90;;;;;;5093069;28;20059;-77
2023/05/15 03:45:25;;;;;;;31.67;18.60;;;16.60;99.90;;;;;;5092887;28;20043;-77
2023/05/15 03:48:29;;;;;;;25.35;17.65;;;15.80;99.90;;;;;;5080613;28;20046;-77
2023/05/15 03:51:33;;;;;;;23.38;16.58;;;15.90;99.90;;;;;;5093064;28;20054;-77
2023/05/15 03:54:37;;;;;;;23.40;16.17;;;15.90;99.90;;;;;;5091996;28;20404;-77
2023/05/15 03:57:41;;;;;;;29.90;17.27;;;15.90;99.90;;;;;;5092102;28;20502;-77
2023/05/15 04:00:45;;;;;;;25.42;18.05;;;15.90;99.90;;;;;;5092819;28;20047;-77
2023/05/15 04:03:49;;;;;;;25.40;17.90;;;15.90;99.90;;;;;;5092528;28;20051;-77
2023/05/15 04:06:53;;;;;;;23.48;18.30;;;15.70;99.90;;;;;;5092699;28;20043;-77
2023/05/15 04:10:00;;;;;;;25.52;18.20;;;17.10;99.90;;;;;;5092533;28;20067;-77
2023/05/15 04:13:04;;;;;;;26.85;18.33;;;15.70;99.90;;;;;;5092175;28;20041;-77
2023/05/15 04:16:08;;;;;;;30.58;20.08;;;14.70;99.90;;;;;;5092375;28;20066;-78
2023/05/15 04:19:12;;;;;;;30.55;20.95;;;15.60;99.90;;;;;;5092435;28;20047;-77
2023/05/15 04:22:16;;;;;;;32.85;20.08;;;15.50;99.90;;;;;;5092181;28;20047;-77
2023/05/15 04:25:20;;;;;;;25.42;19.33;;;17.00;99.90;;;;;;5091407;28;20415;-77
2023/05/15 04:28:25;;;;;;;33.67;20.85;;;15.50;99.90;;;;;;5091999;28;20047;-77
2023/05/15 04:31:30;;;;;;;32.67;20.25;;;15.50;99.90;;;;;;5092280;28;20046;-77
2023/05/15 04:34:34;;;;;;;29.73;18.67;;;16.90;99.90;;;;;;5092242;28;20043;-77
2023/05/15 04:37:41;;;;;;;23.70;17.55;;;18.40;99.90;;;;;;5091409;28;20498;-77
2023/05/15 04:40:46;;;;;;;24.88;17.17;;;;;;;;;;5090968;28;20447;-77
2023/05/15 04:43:50;;;;;;;24.35;17.15;;;15.70;99.90;;;;;;5091781;28;20047;-77
2023/05/15 04:46:54;;;;;;;25.55;16.70;;;15.20;99.90;;;;;;5091656;28;20047;-78
2023/05/15 04:49:58;;;;;;;28.63;18.17;;;;;;;;;;5091669;28;20063;-77
2023/05/15 04:53:02;;;;;;;27.45;19.00;;;14.40;99.90;;;;;;5091790;28;20130;-77
2023/05/15 04:56:06;;;;;;;28.73;19.65;;;15.40;99.90;;;;;;5090617;28;20051;-77
2023/05/15 04:59:10;;;;;;;30.70;19.55;;;14.10;99.90;;;;;;5091534;28;20047;-77
2023/05/15 05:02:14;;;;;;;27.98;19.52;;;15.50;99.90;;;;;;5090784;28;20066;-77
2023/05/15 05:05:19;;;;;;;29.33;19.92;;;15.50;99.90;;;;;;5091693;28;20051;-77
2023/05/15 05:08:23;;;;;;;30.80;21.30;;;15.50;99.90;;;;;;5091261;28;20525;-77
2023/05/15 05:11:27;;;;;;;32.13;20.60;;;15.60;99.90;;;;;;5091501;28;20102;-77
2023/05/15 05:14:31;;;;;;;30.58;20.48;;;15.60;99.90;;;;;;5091439;28;20035;-77
2023/05/15 05:17:35;;;;;;;28.17;20.67;;;15.60;99.90;;;;;;5090428;28;20403;-77
2023/05/15 05:20:39;;;;;;;21.67;16.85;;;14.70;99.90;;;;;;5091161;28;20051;-76
2023/05/15 05:23:43;;;;;;;22.45;15.40;;;15.60;99.90;;;;;;5090130;28;20059;-76
2023/05/15 05:26:47;;;;;;;16.60;12.95;;;15.80;99.90;;;;;;5091034;28;20043;-80
2023/05/15 05:29:53;;;;;;;16.15;9.88;;;16.90;99.90;;;;;;5090775;28;20051;-82
2023/05/15 05:32:56;;;;;;;13.40;10.70;;;15.30;99.90;;;;;;5089467;28;20059;-80
2023/05/15 05:36:01;;;;;;;13.40;10.85;;;;;;;;;;5090499;28;20055;-80
2023/05/15 05:39:05;;;;;;;17.52;10.45;;;15.90;99.90;;;;;;5090812;28;20043;-78
2023/05/15 05:42:09;;;;;;;16.10;9.52;;;15.90;99.90;;;;;;5090431;28;20654;-79
2023/05/15 05:45:13;;;;;;;14.02;8.98;;;15.10;99.90;;;;;;5091064;28;20051;-78
2023/05/15 05:48:17;;;;;;;13.18;8.55;;;15.80;99.90;;;;;;5091106;28;20039;-77
2023/05/15 05:51:21;;;;;;;12.52;8.70;;;15.90;99.90;;;;;;5090802;28;20043;-77
2023/05/15 05:54:25;;;;;;;13.73;8.82;;;15.70;99.90;;;;;;5090661;28;20059;-77
2023/05/15 05:57:29;;;;;;;13.02;7.95;;;15.80;99.90;;;;;;5090963;28;20114;-79
2023/05/15 06:00:34;;;;;;;15.90;8.27;;;15.80;99.90;;;;;;5090816;28;20162;-77
2023/05/15 06:03:38;;;;;;;11.68;6.60;;;15.80;99.90;;;;;;5090672;28;20059;-78
2023/05/15 06:06:42;;;;;;;8.93;7.72;;;15.80;99.90;;;;;;5090567;28;20392;-79
2023/05/15 06:09:47;;;;;;;12.88;7.15;;;15.80;99.90;;;;;;5089956;28;20071;-79
2023/05/15 06:12:51;;;;;;;11.65;7.25;;;15.80;99.90;;;;;;5090656;28;20047;-82
2023/05/15 06:15:55;;;;;;;9.55;6.75;;;15.80;99.90;;;;;;5090916;28;20538;-82
2023/05/15 06:18:59;;;;;;;10.20;6.57;;;15.80;99.90;;;;;;5090932;28;20039;-82
2023/05/15 06:22:04;;;;;;;10.40;7.28;;;15.70;99.90;;;;;;5090020;28;20054;-78
2023/05/15 06:25:12;;;;;;;10.75;6.43;;;15.80;99.90;;;;;;5091004;28;20059;-80
2023/05/15 06:28:16;;;;;;;11.18;6.43;;;15.90;99.90;;;;;;5090380;28;20066;-79
2023/05/15 06:31:20;;;;;;;11.98;5.85;;;15.90;99.90;;;;;;5090656;28;20047;-80
2023/05/15 06:34:25;;;;;;;7.30;4.30;;;15.90;99.90;;;;;;5090988;28;20041;-85
2023/05/15 06:37:29;;;;;;;7.38;4.68;;;16.00;99.90;;;;;;5090860;28;20043;-79
2023/05/15 06:40:33;;;;;;;14.52;4.65;;;16.00;99.90;;;;;;5092596;28;20071;-83
2023/05/15 06:43:36;;;;;;;9.38;4.35;;;16.00;99.90;;;;;;5091922;28;20067;-84
2023/05/15 06:46:41;;;;;;;11.15;5.20;;;16.10;99.90;;;;;;5095286;28;20043;-85
2023/05/15 06:49:45;;;;;;;9.40;4.85;;;16.00;99.90;;;;;;5096448;28;20043;-85
2023/05/15 06:52:48;;;;;;;11.25;5.85;;;16.00;99.90;;;;;;5094465;28;20058;-81
2023/05/15 06:55:52;;;;;;;12.40;5.15;;;16.00;99.90;;;;;;5094922;28;20043;-84
2023/05/15 06:58:56;;;;;;;10.30;5.68;;;16.00;99.90;;;;;;5094351;28;20054;-84
2023/05/15 07:02:04;;;;;;;13.10;5.47;;;16.00;99.90;;;;;;5094472;28;20035;-84
2023/05/15 07:05:09;;;;;;;5.97;4.45;;;16.00;99.90;;;;;;5095163;28;20051;-81
2023/05/15 07:08:13;;;;;;;5.63;4.63;;;16.00;99.90;;;;;;5094711;28;20047;-80
2023/05/15 07:11:17;;;;;;;10.95;4.90;;;16.00;99.90;;;;;;5094162;28;20050;-74
2023/05/15 07:14:39;;;;;;;9.13;4.60;;;16.10;99.90;;;;;;5093369;28;20043;-79
2023/05/15 07:17:44;;;;;;;10.00;5.53;;;16.30;99.90;;;;;;5093235;28;20043;-73
2023/05/15 07:20:48;;;;;;;11.00;5.30;;;16.30;99.90;;;;;;5094191;28;20039;-77
2023/05/15 07:23:52;;;;;;;11.30;5.88;;;16.30;99.90;;;;;;5094135;28;20055;-78
2023/05/15 07:26:56;;;;;;;7.13;5.10;;;16.40;99.90;;;;;;5092615;28;20047;-76
2023/05/15 07:30:02;;;;;;;15.50;7.28;;;16.40;99.90;;;;;;5093384;28;20507;-79
2023/05/15 07:33:06;;;;;;;11.43;6.65;;;16.50;99.90;;;;;;5093373;28;20368;-78
2023/05/15 07:36:10;;;;;;;15.40;8.27;;;16.50;99.90;;;;;;5093620;28;20471;-76
2023/05/15 07:39:14;;;;;;;11.18;7.47;;;16.50;99.90;;;;;;5092650;28;20043;-79
2023/05/15 07:42:18;;;;;;;13.23;7.63;;;16.60;99.90;;;;;;5092941;28;20051;-71
2023/05/15 07:45:22;;;;;;;13.52;8.25;;;16.60;99.90;;;;;;5092203;28;20458;-70
2023/05/15 07:48:26;;;;;;;13.45;8.38;;;16.70;99.90;;;;;;5092746;28;20117;-74
2023/05/15 07:51:30;;;;;;;10.60;7.95;;;16.70;99.90;;;;;;5092751;28;20047;-68
2023/05/15 07:54:34;;;;;;;14.73;8.82;;;16.80;99.90;;;;;;5091471;28;20043;-68
2023/05/15 07:57:41;;;;;;;14.38;8.45;;;16.80;99.90;;;;;;5090878;28;20047;-68
2023/05/15 08:00:45;;;;;;;12.82;7.80;;;16.80;99.90;;;;;;5091877;28;20043;-68
2023/05/15 08:03:49;;;;;;;14.07;8.43;;;16.80;99.90;;;;;;5092338;28;20055;-68
2023/05/15 08:06:53;;;;;;;13.10;7.68;;;16.80;99.90;;;;;;5092489;28;20518;-68
2023/05/15 08:09:56;;;;;;;14.95;8.73;;;16.70;99.90;;;;;;5092270;28;20070;-67
2023/05/15 08:13:01;;;;;;;14.23;8.43;;;16.70;99.90;;;;;;5091975;28;20043;-68
2023/05/15 08:16:04;;;;;;;12.90;8.27;;;16.60;99.90;;;;;;5092292;28;20051;-68
2023/05/15 08:19:09;;;;;;;12.13;8.32;;;16.50;99.90;;;;;;5091833;28;20059;-67
2023/05/15 08:22:13;;;;;;;16.23;8.82;;;16.60;99.90;;;;;;5091507;28;20043;-68
2023/05/15 08:25:17;;;;;;;12.73;7.78;;;16.50;99.90;;;;;;5091984;28;20070;-68
2023/05/15 08:28:21;;;;;;;9.82;8.15;;;16.60;99.90;;;;;;5091873;28;20513;-68
2023/05/15 08:31:25;;;;;;;16.83;8.60;;;16.60;99.90;;;;;;5091897;28;20047;-68
2023/05/15 08:34:29;;;;;;;13.45;8.30;;;16.50;99.90;;;;;;5090595;28;20046;-69
2023/05/15 08:37:33;;;;;;;12.13;7.68;;;16.60;99.90;;;;;;5091205;28;20043;-69
2023/05/15 08:40:38;;;;;;;11.80;8.10;;;16.60;99.90;;;;;;5091407;28;20055;-74
2023/05/15 08:43:42;;;;;;;13.05;7.15;;;16.60;99.90;;;;;;5092203;28;20043;-74
2023/05/15 08:46:47;;;;;;;11.23;7.47;;;16.50;99.90;;;;;;5092517;28;20039;-78
2023/05/15 08:50:14;;;;;;;12.35;7.15;;;16.50;99.90;;;;;;5092538;28;20055;-72
2023/05/15 08:53:19;;;;;;;10.20;6.50;;;16.50;99.90;;;;;;5093846;28;20047;-74
2023/05/15 08:56:23;;;;;;;11.30;6.70;;;16.60;99.90;;;;;;5092190;28;20391;-74
2023/05/15 08:59:28;;;;;;;13.20;6.82;;;16.60;99.90;;;;;;5090852;28;20051;-72
2023/05/15 09:02:32;;;;;;;10.18;7.07;;;16.60;99.90;;;;;;5091407;28;20408;-73
2023/05/15 09:05:36;;;;;;;8.43;6.00;;;16.70;99.90;;;;;;5090827;28;20047;-77
2023/05/15 09:08:41;;;;;;;10.57;6.07;;;16.70;99.90;;;;;;5090785;28;20047;-73
2023/05/15 09:11:47;;;;;;;11.85;5.57;;;16.60;99.90;;;;;;5091153;28;20043;-72
2023/05/15 09:15:06;;;;;;;5.57;3.67;;;16.60;99.90;;;;;;5090957;28;20392;-72
2023/05/15 09:18:10;;;;;;;8.50;4.97;;;16.50;99.90;;;;;;5091509;28;20043;-74
2023/05/15 09:21:30;;;;;;;8.85;5.22;;;16.50;99.90;;;;;;5090121;28;20043;-72
2023/05/15 09:24:37;;;;;;;8.93;4.47;;;16.50;99.90;;;;;;5091371;28;20055;-77
2023/05/15 09:27:42;;;;;;;7.35;4.45;;;16.50;99.90;;;;;;5090308;28;20055;-81
2023/05/15 09:30:47;;;;;;;7.32;3.78;;;16.50;99.90;;;;;;5091036;28;20043;-72
2023/05/15 09:34:04;;;;;;;8.32;2.90;;;16.50;99.90;;;;;;5091318;28;20043;-73
2023/05/15 09:37:11;;;;;;;3.92;1.65;;;16.50;99.90;;;;;;5091047;28;20502;-75
2023/05/15 09:40:18;;;;;;;5.07;2.45;;;16.40;99.90;;;;;;5090870;28;20043;-74
2023/05/15 09:43:21;;;;;;;3.15;1.77;;;16.50;99.90;;;;;;5091181;28;20396;-78
2023/05/15 09:46:25;;;;;;;5.07;1.75;;;16.40;99.90;;;;;;5091118;28;20051;-72
2023/05/15 09:49:30;;;;;;;6.00;1.63;;;16.50;99.90;;;;;;5090649;28;20471;-71
2023/05/15 09:52:35;;;;;;;3.80;1.15;;;16.50;99.90;;;;;;5091282;28;20051;-80
2023/05/15 09:55:41;;;;;;;3.53;1.58;;;16.60;99.90;;;;;;5090958;28;20047;-77
2023/05/15 09:58:56;;;;;;;3.78;1.60;;;16.50;99.90;;;;;;5091726;28;20059;-83
2023/05/15 10:02:00;;;;;;;4.25;2.00;;;17.10;99.90;;;;;;5091858;28;20059;-76
2023/05/15 10:05:04;;;;;;;5.55;1.45;;;16.70;99.90;;;;;;5089863;28;20051;-75
2023/05/15 10:08:08;;;;;;;4.18;1.70;;;16.70;99.90;;;;;;5090654;28;20035;-74
2023/05/15 10:11:12;;;;;;;4.65;1.73;;;16.60;99.90;;;;;;5090781;28;20047;-72
2023/05/15 10:14:18;;;;;;;6.53;2.03;;;16.50;99.90;;;;;;5091007;28;20522;-73
2023/05/15 10:17:23;;;;;;;4.85;1.50;;;16.40;99.90;;;;;;5090642;28;20096;-76
2023/05/15 10:20:27;;;;;;;3.10;1.30;;;16.40;99.90;;;;;;5091523;28;20051;-71
2023/05/15 10:23:34;;;;;;;5.30;1.83;;;16.40;99.90;;;;;;5094717;28;20055;-78
2023/05/15 10:26:40;;;;;;;12.98;2.00;;;17.10;99.90;;;;;;5094419;28;20043;-73
2023/05/15 10:29:46;;;;;;;9.00;2.03;;;16.40;99.90;;;;;;5094334;28;20051;-73
2023/05/15 10:32:50;;;;;;;5.22;2.00;;;16.50;99.90;;;;;;5094808;28;20475;-68
2023/05/15 10:35:57;;;;;;;6.47;1.60;;;16.50;99.90;;;;;;5094440;28;20501;-75
2023/05/15 10:39:04;;;;;;;9.68;1.80;;;16.60;99.90;;;;;;5094311;28;20051;-69
2023/05/15 10:42:09;;;;;;;10.07;1.20;;;16.60;99.90;;;;;;5094335;28;20055;-70
2023/05/15 10:45:13;;;;;;;10.10;2.05;;;16.60;99.90;;;;;;5094352;28;20055;-78
2023/05/15 10:48:17;;;;;;;6.20;1.40;;;16.60;99.90;;;;;;5094343;28;20039;-74
2023/05/15 10:51:30;;;;;;;6.95;2.33;;;16.60;99.90;;;;;;5094077;28;20047;-71
2023/05/15 10:54:34;;;;;;;7.40;2.30;;;16.60;99.90;;;;;;5094129;28;20035;-71
2023/05/15 10:57:38;;;;;;;4.45;2.30;;;16.60;99.90;;;;;;5094045;28;20047;-72
2023/05/15 11:00:44;;;;;;;4.32;2.05;;;16.70;99.90;;;;;;5094015;28;20051;-74
2023/05/15 11:03:48;;;;;;;8.52;3.10;;;16.70;99.90;;;;;;5093702;28;20047;-73
2023/05/15 11:07:11;;;;;;;4.28;2.20;;;16.80;99.90;;;;;;5094103;28;20043;-76
2023/05/15 11:10:28;;;;;;;7.28;2.47;;;;;;;;;;5093788;28;20039;-74
2023/05/15 11:14:06;;;;;;;6.70;2.03;;;;;;;;;;5093041;28;20028;-74
2023/05/15 11:17:13;;;;;;;9.07;2.53;;;;;;;;;;5093239;28;20032;-73
2023/05/15 11:20:18;;;;;;;4.15;1.85;;;;;;;;;;5093617;28;20036;-72
2023/05/15 11:23:23;;;;;;;6.18;2.58;;;;;;;;;;5093548;28;20036;-73
2023/05/15 11:26:34;;;;;;;5.82;3.13;;;;;;;;;;5093634;28;20052;-74
2023/05/15 11:29:58;;;;;;;5.68;3.28;;;;;;;;;;5093221;28;20040;-73
2023/05/15 11:33:08;;;;;;;9.65;3.22;;;;;;;;;;5092157;28;20139;-71
2023/05/15 11:36:14;;;;;;;6.15;2.70;;;;;;;;;;5093525;28;20040;-72
2023/05/15 11:39:23;;;;;;;5.10;1.90;;;;;;;;;;5093187;28;20377;-73
2023/05/15 11:42:27;;;;;;;6.53;2.20;;;;;;;;;;5093171;28;20036;-72
2023/05/15 11:45:36;;;;;;;5.50;1.88;;;;;;;;;;5093099;28;20048;-73
2023/05/15 11:48:48;;;;;;;7.55;2.10;;;;;;;;;;5093156;28;20040;-72
2023/05/15 11:51:52;;;;;;;7.72;2.15;;;;;;;;;;5092981;28;20040;-73
2023/05/15 11:54:58;;;;;;;11.60;2.90;;;;;;;;;;5092899;28;20369;-72
2023/05/15 11:58:03;;;;;;;7.32;3.22;;;;;;;;;;5093002;28;20494;-74
2023/05/15 12:01:09;;;;;;;5.28;3.17;;;;;;;;;;5092953;28;20040;-73
2023/05/15 12:04:14;;;;;;;5.32;2.50;;;;;;;;;;5092963;28;20044;-74
2023/05/15 12:07:18;;;;;;;6.60;2.80;;;;;;;;;;5092754;28;20040;-74
2023/05/15 12:10:23;;;;;;;6.25;2.30;;;;;;;;;;5092449;28;20040;-70
2023/05/15 12:13:27;;;;;;;6.85;2.88;;;;;;;;;;5092853;28;20036;-75
2023/05/15 12:16:32;;;;;;;7.32;2.95;;;;;;;;;;5091935;28;20036;-77
2023/05/15 12:19:36;;;;;;;9.43;3.17;;;;;;;;;;5092596;28;20028;-75
2023/05/15 12:22:41;;;;;;;7.38;3.70;;;;;;;;;;5092642;28;20044;-74
2023/05/15 12:25:46;;;;;;;8.02;3.40;;;;;;;;;;5092136;28;20047;-75
2023/05/15 12:28:51;;;;;;;5.55;2.80;;;;;;;;;;5091998;28;20629;-76
2023/05/15 12:31:56;;;;;;;5.45;3.13;;;;;;;;;;5092216;28;20043;-74
2023/05/15 12:35:01;;;;;;;6.05;3.20;;;;;;;;;;5092167;28;20036;-74
2023/05/15 12:38:06;;;;;;;9.32;2.85;;;;;;;;;;5092150;28;20036;-73
2023/05/15 12:41:10;;;;;;;6.70;2.78;;;17.50;99.90;;;;;;5092045;28;20040;-73
2023/05/15 12:44:16;;;;;;;10.35;3.50;;;17.40;99.90;;;;;;5091906;28;20499;-73
2023/05/15 12:47:26;;;;;;;6.55;2.85;;;17.10;99.90;;;;;;5092220;28;20054;-72
2023/05/15 12:50:34;;;;;;;3.90;1.92;;;17.00;99.90;;;;;;5091845;28;20039;-73
2023/05/15 12:53:41;;;;;;;3.85;1.83;;;16.80;99.90;;;;;;5091902;28;20043;-73
2023/05/15 12:56:48;;;;;;;4.00;1.63;;;16.80;99.90;;;;;;5091834;28;20384;-73
2023/05/15 12:59:53;;;;;;;4.38;1.63;;;16.70;99.90;;;;;;5091615;28;20051;-72
2023/05/15 13:02:58;;;;;;;1.95;1.08;;;16.70;99.90;;;;;;5091531;28;20039;-73
2023/05/15 13:06:02;;;;;;;3.92;1.15;;;16.50;99.90;;;;;;5091377;28;20055;-72
2023/05/15 13:09:06;;;;;;;2.88;1.35;;;16.50;99.90;;;;;;5091551;28;20503;-72
2023/05/15 13:12:11;;;;;;;3.90;1.20;;;16.50;99.90;;;;;;5091525;28;20042;-72
2023/05/15 13:15:28;;;;;;;3.58;1.50;;;16.50;99.90;;;;;;5091576;28;20043;-73
2023/05/15 13:18:32;;;;;;;3.17;1.70;;;16.50;99.90;;;;;;5091061;28;20043;-73
2023/05/15 13:21:36;;;;;;;3.47;1.63;;;16.50;99.90;;;;;;5091445;28;20043;-74
2023/05/15 13:24:44;;;;;;;4.45;1.25;;;16.50;99.90;;;;;;5091267;28;20063;-73
2023/05/15 13:27:49;;;;;;;10.40;1.40;;;16.60;99.90;;;;;;5090839;28;20059;-73
2023/05/15 13:30:53;;;;;;;4.55;1.25;;;16.60;99.90;;;;;;5091248;28;20498;-74
2023/05/15 13:33:57;;;;;;;5.10;1.90;;;16.70;99.90;;;;;;5090106;28;20043;-74
2023/05/15 13:37:01;;;;;;;3.53;1.50;;;16.80;99.90;;;;;;5091310;28;20598;-74
2023/05/15 13:40:09;;;;;;;4.60;1.20;;;16.90;99.90;;;;;;5091127;28;20502;-73
2023/05/15 13:43:12;;;;;;;2.13;0.93;;;16.90;99.90;;;;;;5091455;28;20043;-74
2023/05/15 13:46:16;;;;;;;3.88;1.30;;;16.90;99.90;;;;;;5091144;28;20047;-74
2023/05/15 13:49:20;;;;;;;5.68;1.38;;;17.00;99.90;;;;;;5091031;28;20047;-74
2023/05/15 13:52:25;;;;;;;5.10;1.63;;;17.00;99.90;;;;;;5091491;28;20395;-75
2023/05/15 13:55:30;;;;;;;3.40;1.27;;;17.00;99.90;;;;;;5093671;28;20047;-73
2023/05/15 13:58:34;;;;;;;2.72;1.20;;;17.10;99.90;;;;;;5097720;28;20047;-75
2023/05/15 14:01:37;;;;;;;2.90;1.00;;;17.00;99.90;;;;;;5098046;28;20058;-74
2023/05/15 14:04:41;;;;;;;4.03;1.38;;;17.00;99.90;;;;;;5098058;28;20075;-73
2023/05/15 14:07:45;;;;;;;5.00;1.52;;;17.00;99.90;;;;;;5097743;28;20043;-74
2023/05/15 14:10:49;;;;;;;4.35;1.33;;;16.90;99.90;;;;;;5097478;28;20047;-73
2023/05/15 14:13:53;;;;;;;5.20;1.40;;;16.90;99.90;;;;;;5097275;28;20510;-74
2023/05/15 14:16:57;;;;;;;5.63;2.17;;;16.90;99.90;;;;;;5097463;28;20043;-72
2023/05/15 14:20:01;;;;;;;2.97;1.50;;;16.80;99.90;;;;;;5097751;28;20047;-70
2023/05/15 14:23:05;;;;;;;3.90;1.42;;;16.80;99.90;;;;;;5096386;28;20043;-70
2023/05/15 14:26:09;;;;;;;7.25;1.50;;;16.70;99.90;;;;;;5097308;28;20055;-69
2023/05/15 14:29:13;;;;;;;20.83;2.53;;;16.60;99.90;;;;;;5096759;28;20047;-73
2023/05/15 14:32:17;;;;;;;4.32;1.92;;;16.70;99.90;;;;;;5097598;28;20055;-72
2023/05/15 14:35:21;;;;;;;9.80;1.60;;;16.60;99.90;;;;;;5096999;28;20403;-72
2023/05/15 14:38:25;;;;;;;3.35;1.25;;;16.70;99.90;;;;;;5097009;28;20062;-74
2023/05/15 14:41:29;;;;;;;4.93;1.30;;;16.70;99.90;;;;;;5096372;28;20047;-73
2023/05/15 14:44:34;;;;;;;2.45;1.00;;;16.70;99.90;;;;;;5096961;28;20067;-70
2023/05/15 14:47:38;;;;;;;1.73;0.98;;;19.00;99.90;;;;;;5096749;28;20051;-70
2023/05/15 14:50:42;;;;;;;4.38;0.98;;;16.90;99.90;;;;;;5097012;28;20043;-70
2023/05/15 14:53:46;;;;;;;2.80;0.60;;;16.90;99.90;;;;;;5096023;28;20039;-71
2023/05/15 14:56:49;;;;;;;1.83;0.88;;;17.00;99.90;;;;;;5096139;28;20106;-70
2023/05/15 14:59:53;;;;;;;1.55;0.77;;;17.10;99.90;;;;;;5097071;28;20043;-72
2023/05/15 15:02:58;;;;;;;1.80;0.90;;;17.10;99.90;;;;;;5097243;28;20050;-70
2023/05/15 15:06:02;;;;;;;2.80;0.80;;;17.00;99.90;;;;;;5096456;28;20055;-70
2023/05/15 15:09:06;;;;;;;4.50;0.88;;;17.10;99.90;;;;;;5093630;28;20047;-68
2023/05/15 15:12:10;;;;;;;5.97;0.90;;;17.10;99.90;;;;;;5094046;28;20043;-70
2023/05/15 15:15:14;;;;;;;1.30;0.80;;;17.10;99.90;;;;;;5093981;28;20388;-69
2023/05/15 15:18:19;;;;;;;7.53;0.85;;;17.20;99.90;;;;;;5093310;28;20051;-70
2023/05/15 15:21:24;;;;;;;2.90;0.98;;;17.20;99.90;;;;;;5092710;28;20046;-70
2023/05/15 15:24:28;;;;;;;1.38;0.68;;;17.20;99.90;;;;;;5093555;28;20047;-71
2023/05/15 15:27:32;;;;;;;1.48;0.50;;;17.20;99.90;;;;;;5092844;28;20051;-70
2023/05/15 15:30:37;;;;;;;1.00;0.50;;;17.20;99.90;;;;;;5093462;28;20059;-71
2023/05/15 15:33:41;;;;;;;2.78;0.85;;;17.10;99.90;;;;;;5093334;28;20047;-71
2023/05/15 15:36:44;;;;;;;0.90;0.35;;;17.10;99.90;;;;;;5093419;28;20396;-71
2023/05/15 15:39:48;;;;;;;2.63;0.50;;;17.10;99.90;;;;;;5093011;28;20047;-70
2023/05/15 15:42:53;;;;;;;2.83;1.40;;;17.00;99.90;;;;;;5093220;28;20399;-71
2023/05/15 15:45:56;;;;;;;3.28;0.90;;;17.20;99.90;;;;;;5092696;28;20399;-71
2023/05/15 15:49:00;;;;;;;3.08;1.98;;;17.20;99.90;;;;;;5092715;28;20110;-71
2023/05/15 15:52:04;;;;;;;1.38;0.73;;;17.30;99.90;;;;;;5092570;28;20128;-72
2023/05/15 15:55:09;;;;;;;0.50;0.40;;;17.30;99.90;;;;;;5092561;28;20035;-72
2023/05/15 15:58:13;;;;;;;0.50;0.40;;;17.30;99.90;;;;;;5092404;28;20400;-72
2023/05/15 16:01:17;;;;;;;0.85;0.50;;;17.30;99.90;;;;;;5092791;28;20039;-71
2023/05/15 16:04:21;;;;;;;2.15;0.73;;;17.30;99.90;;;;;;5092800;28;20051;-70
2023/05/15 16:07:25;;;;;;;1.15;0.50;;;17.20;99.90;;;;;;5092563;28;20067;-71